Time;durP1;ratioP1;P1;durP2;ratioP2;P2;SDS_P1;SDS_P2;PMS_P1;PMS_P2;Temp;Humidity;BMP_temperature;BMP_pressure;BME280_temperature;BME280_humidity;BME280_pressure;Samples;Min_cycle;Max_cycle;Signal;HPM_P1;HPM_P2
2024/01/29 00:00:51;;;;;;;6.20;4.60;;;4.40;99.90;;;;;;4986754;28;21879;-62
2024/01/29 00:03:19;;;;;;;4.80;4.30;;;4.40;99.90;;;;;;4987130;28;20468;-62
2024/01/29 00:05:48;;;;;;;7.20;4.20;;;4.40;99.90;;;;;;4987412;28;20477;-62
2024/01/29 00:08:17;;;;;;;7.17;4.30;;;4.40;99.90;;;;;;4988188;28;20468;-62
2024/01/29 00:10:46;;;;;;;4.83;4.33;;;4.40;99.90;;;;;;4988899;28;20492;-62
2024/01/29 00:13:14;;;;;;;5.23;4.27;;;4.50;99.90;;;;;;4996731;28;20492;-62
2024/01/29 00:15:42;;;;;;;5.63;4.13;;;4.50;99.90;;;;;;4995546;28;20846;-62
2024/01/29 00:18:10;;;;;;;6.10;4.03;;;4.60;99.90;;;;;;4999833;28;20492;-62
2024/01/29 00:20:38;;;;;;;5.67;4.50;;;4.60;99.90;;;;;;4999431;28;20499;-62
2024/01/29 00:23:07;;;;;;;6.43;4.20;;;4.60;99.90;;;;;;5001983;28;20472;-62
2024/01/29 00:25:36;;;;;;;4.97;4.23;;;4.60;99.90;;;;;;5000274;28;20571;-62
2024/01/29 00:28:05;;;;;;;6.37;4.57;;;4.60;99.90;;;;;;4996927;28;20623;-62
2024/01/29 00:30:33;;;;;;;5.97;3.90;;;4.60;99.90;;;;;;5001065;28;21013;-62
2024/01/29 00:33:01;;;;;;;5.30;3.53;;;4.70;99.90;;;;;;5000320;28;20941;-62
2024/01/29 00:35:29;;;;;;;9.60;4.40;;;4.70;99.90;;;;;;4998362;28;20468;-62
2024/01/29 00:37:57;;;;;;;4.07;3.70;;;4.60;99.90;;;;;;4996296;28;20492;-62
2024/01/29 00:40:25;;;;;;;4.47;4.03;;;4.70;99.90;;;;;;4996331;28;20507;-62
2024/01/29 00:42:54;;;;;;;6.60;4.57;;;4.60;99.90;;;;;;4994466;28;20816;-62
2024/01/29 00:45:22;;;;;;;6.60;4.70;;;4.60;99.90;;;;;;4980169;28;20480;-62
2024/01/29 00:47:51;;;;;;;5.47;4.27;;;4.70;99.90;;;;;;4997818;28;20471;-62
2024/01/29 00:50:19;;;;;;;4.30;3.53;;;4.70;99.90;;;;;;4988019;28;20530;-62
2024/01/29 00:52:47;;;;;;;4.20;3.40;;;4.70;99.90;;;;;;4990208;28;20642;-62
2024/01/29 00:55:15;;;;;;;5.30;3.90;;;4.70;99.90;;;;;;4983190;28;20468;-62
2024/01/29 00:57:43;;;;;;;4.90;4.00;;;4.70;99.90;;;;;;4980828;28;20496;-62
2024/01/29 01:00:14;;;;;;;4.77;4.00;;;4.70;99.90;;;;;;4982560;28;22252;-62
2024/01/29 01:02:42;;;;;;;4.57;4.10;;;4.70;99.90;;;;;;4985649;28;20496;-62
2024/01/29 01:05:10;;;;;;;5.70;3.90;;;4.70;99.90;;;;;;4988295;28;20521;-62
2024/01/29 01:07:38;;;;;;;5.00;4.20;;;4.80;99.90;;;;;;4991773;28;20599;-62
2024/01/29 01:10:07;;;;;;;4.40;3.60;;;4.80;99.90;;;;;;4989708;28;20662;-62
2024/01/29 01:12:35;;;;;;;4.20;3.70;;;4.80;99.90;;;;;;4981582;28;20526;-62
2024/01/29 01:15:04;;;;;;;4.53;3.40;;;4.80;99.90;;;;;;4994141;28;20809;-62
2024/01/29 01:17:33;;;;;;;3.73;3.30;;;4.80;99.90;;;;;;4989873;28;20646;-62
2024/01/29 01:20:02;;;;;;;4.53;3.83;;;4.80;99.90;;;;;;4987503;28;20469;-62
2024/01/29 01:22:31;;;;;;;3.73;3.40;;;4.80;99.90;;;;;;4987822;28;20491;-63
2024/01/29 01:24:59;;;;;;;3.90;3.50;;;4.80;99.90;;;;;;4982196;28;20472;-62
2024/01/29 01:27:27;;;;;;;4.60;3.80;;;4.80;99.90;;;;;;4991167;28;20483;-62
2024/01/29 01:29:55;;;;;;;5.47;3.67;;;4.80;99.90;;;;;;4992225;28;20473;-62
2024/01/29 01:32:24;;;;;;;4.50;3.80;;;4.80;99.90;;;;;;5011851;28;20501;-62
2024/01/29 01:34:53;;;;;;;4.60;3.57;;;4.80;99.90;;;;;;5007520;28;20960;-62
2024/01/29 01:37:21;;;;;;;4.40;3.80;;;4.80;99.90;;;;;;5011940;28;20554;-62
2024/01/29 01:39:52;;;;;;;4.80;3.37;;;4.80;99.90;;;;;;5007140;28;20556;-62
2024/01/29 01:42:21;;;;;;;4.60;3.90;;;4.80;99.90;;;;;;5002047;28;20951;-62
2024/01/29 01:44:49;;;;;;;4.83;4.10;;;4.80;99.90;;;;;;5005988;28;20592;-62
2024/01/29 01:47:17;;;;;;;4.00;3.70;;;4.80;99.90;;;;;;5008063;28;20491;-63
2024/01/29 01:49:45;;;;;;;4.07;3.67;;;4.70;99.90;;;;;;5010975;28;20495;-59
2024/01/29 01:52:16;;;;;;;4.33;3.93;;;4.80;99.90;;;;;;5018759;28;21253;-62
2024/01/29 01:54:45;;;;;;;4.27;3.67;;;4.80;99.90;;;;;;5010468;28;20476;-62
2024/01/29 01:57:14;;;;;;;4.53;3.37;;;4.80;99.90;;;;;;5016854;28;20571;-62
2024/01/29 01:59:42;;;;;;;3.47;2.97;;;4.70;99.90;;;;;;5019017;28;20518;-62
2024/01/29 02:02:13;;;;;;;4.07;3.27;;;4.70;99.90;;;;;;4995101;28;20496;-62
2024/01/29 02:04:41;;;;;;;4.50;3.57;;;4.70;99.90;;;;;;4998126;28;20468;-62
2024/01/29 02:07:09;;;;;;;3.93;3.40;;;4.70;99.90;;;;;;4996868;28;20476;-62
2024/01/29 02:09:38;;;;;;;3.63;3.33;;;4.70;99.90;;;;;;4989404;28;20466;-62
2024/01/29 02:12:06;;;;;;;4.40;3.80;;;4.70;99.90;;;;;;4992952;28;21082;-62
2024/01/29 02:14:34;;;;;;;3.60;3.20;;;4.70;99.90;;;;;;4996196;28;20667;-63
2024/01/29 02:17:03;;;;;;;3.80;3.50;;;4.70;99.90;;;;;;4999882;28;20603;-62
2024/01/29 02:19:31;;;;;;;3.70;3.00;;;4.70;99.90;;;;;;5005925;28;20536;-62
2024/01/29 02:21:59;;;;;;;4.03;3.47;;;4.70;99.90;;;;;;5003870;28;20498;-62
2024/01/29 02:24:28;;;;;;;4.10;3.70;;;4.70;99.90;;;;;;5001262;28;20552;-62
2024/01/29 02:26:56;;;;;;;4.47;3.30;;;4.60;99.90;;;;;;5001334;28;20505;-63
2024/01/29 02:29:24;;;;;;;4.03;3.33;;;4.60;99.90;;;;;;5000205;28;21067;-62
2024/01/29 02:31:52;;;;;;;5.30;3.40;;;4.60;99.90;;;;;;4994608;28;20626;-62
2024/01/29 02:34:20;;;;;;;4.03;3.50;;;4.60;99.90;;;;;;4991907;28;20550;-62
2024/01/29 02:36:49;;;;;;;3.70;3.40;;;4.60;99.90;;;;;;4988824;28;20499;-62
2024/01/29 02:39:17;;;;;;;4.27;3.60;;;4.60;99.90;;;;;;4996684;28;20519;-62
2024/01/29 02:41:47;;;;;;;3.67;3.23;;;4.60;99.90;;;;;;4998581;28;20527;-62
2024/01/29 02:44:15;;;;;;;4.00;3.17;;;4.50;99.90;;;;;;4989405;28;21111;-62
2024/01/29 02:46:43;;;;;;;4.53;3.67;;;4.50;99.90;;;;;;4985885;28;20472;-62
2024/01/29 02:49:11;;;;;;;3.53;3.23;;;4.50;99.90;;;;;;4988238;28;20471;-62
2024/01/29 02:51:40;;;;;;;3.57;3.27;;;4.50;99.90;;;;;;4993865;28;20488;-62
2024/01/29 02:54:08;;;;;;;3.70;3.40;;;4.50;99.90;;;;;;4992120;28;20976;-62
2024/01/29 02:56:36;;;;;;;3.70;3.10;;;4.50;99.90;;;;;;4984936;28;20485;-62
2024/01/29 02:59:05;;;;;;;4.33;3.40;;;4.50;99.90;;;;;;4998121;28;20527;-62
2024/01/29 03:01:33;;;;;;;3.97;3.17;;;4.50;99.90;;;;;;4990904;28;20876;-62
2024/01/29 03:04:01;;;;;;;3.20;2.90;;;4.50;99.90;;;;;;4991969;28;20983;-62
2024/01/29 03:06:31;;;;;;;3.43;3.13;;;4.50;99.90;;;;;;4989072;28;20528;-62
2024/01/29 03:08:59;;;;;;;4.90;3.33;;;4.50;99.90;;;;;;4979857;28;20538;-62
2024/01/29 03:11:27;;;;;;;3.00;2.70;;;4.40;99.90;;;;;;4984948;28;20805;-62
2024/01/29 03:13:55;;;;;;;3.77;3.17;;;4.40;99.90;;;;;;4983405;28;20576;-62
2024/01/29 03:16:24;;;;;;;3.00;2.70;;;4.40;99.90;;;;;;4987248;28;20558;-62
2024/01/29 03:18:52;;;;;;;3.87;3.07;;;4.40;99.90;;;;;;4989945;28;20576;-63
2024/01/29 03:21:21;;;;;;;4.40;3.50;;;4.40;99.90;;;;;;5004084;28;20510;-62
2024/01/29 03:23:49;;;;;;;4.13;3.40;;;4.30;99.90;;;;;;5009345;28;20486;-62
2024/01/29 03:26:17;;;;;;;3.37;3.07;;;4.30;99.90;;;;;;5010583;28;21089;-62
2024/01/29 03:28:45;;;;;;;5.50;3.40;;;4.30;99.90;;;;;;5018870;28;20522;-62
2024/01/29 03:31:13;;;;;;;3.47;2.90;;;4.30;99.90;;;;;;5017563;28;20503;-62
2024/01/29 03:33:42;;;;;;;3.70;3.10;;;4.30;99.90;;;;;;5021000;28;20570;-62
2024/01/29 03:36:10;;;;;;;3.30;3.00;;;4.30;99.90;;;;;;4998850;28;20484;-62
2024/01/29 03:38:38;;;;;;;3.30;2.97;;;4.30;99.90;;;;;;5013823;28;20471;-62
2024/01/29 03:41:06;;;;;;;3.80;2.67;;;4.30;99.90;;;;;;5004219;28;20571;-62
2024/01/29 03:43:33;;;;;;;3.50;3.20;;;4.30;99.90;;;;;;5016063;28;20483;-62
2024/01/29 03:46:01;;;;;;;3.97;3.40;;;4.30;99.90;;;;;;5012380;28;20491;-62
2024/01/29 03:48:30;;;;;;;3.37;2.83;;;4.30;99.90;;;;;;5005969;28;20940;-62
2024/01/29 03:50:59;;;;;;;3.67;2.93;;;4.30;99.90;;;;;;5014164;28;21010;-62
2024/01/29 03:53:27;;;;;;;3.57;2.93;;;4.30;99.90;;;;;;5013100;28;21086;-62
2024/01/29 03:55:56;;;;;;;4.17;3.77;;;4.30;99.90;;;;;;5015589;28;20478;-62
2024/01/29 03:58:24;;;;;;;3.40;2.60;;;4.30;99.90;;;;;;5012246;28;20575;-62
2024/01/29 04:00:52;;;;;;;7.03;3.40;;;4.30;99.90;;;;;;5017620;28;20890;-63
2024/01/29 04:03:20;;;;;;;3.67;2.90;;;4.30;99.90;;;;;;5010333;28;20474;-62
2024/01/29 04:05:48;;;;;;;3.07;2.80;;;4.30;99.90;;;;;;5012624;28;20495;-62
2024/01/29 04:08:17;;;;;;;3.77;2.70;;;4.30;99.90;;;;;;5017157;28;20660;-62
2024/01/29 04:10:45;;;;;;;3.37;2.83;;;4.30;99.90;;;;;;5017088;28;20491;-62
2024/01/29 04:13:13;;;;;;;3.37;2.90;;;4.30;99.90;;;;;;5010296;28;20562;-62
2024/01/29 04:15:41;;;;;;;3.37;3.07;;;4.30;99.90;;;;;;5017542;28;20482;-62
2024/01/29 04:18:09;;;;;;;3.13;2.90;;;4.30;99.90;;;;;;5020671;28;20510;-62
2024/01/29 04:20:37;;;;;;;3.73;2.77;;;4.30;99.90;;;;;;5023251;28;20590;-62
2024/01/29 04:23:05;;;;;;;5.50;3.17;;;4.30;99.90;;;;;;5018297;28;20569;-62
2024/01/29 04:25:34;;;;;;;3.33;2.93;;;4.40;99.90;;;;;;5018001;28;20840;-62
2024/01/29 04:28:02;;;;;;;4.00;3.07;;;4.30;99.90;;;;;;5015585;28;20602;-62
2024/01/29 04:30:30;;;;;;;3.20;2.90;;;4.30;99.90;;;;;;5012277;28;20495;-65
2024/01/29 04:32:58;;;;;;;3.00;2.70;;;4.30;99.90;;;;;;5014736;28;20471;-62
2024/01/29 04:35:26;;;;;;;4.77;3.13;;;4.30;99.90;;;;;;5024727;28;20499;-62
2024/01/29 04:37:54;;;;;;;3.13;2.77;;;4.30;99.90;;;;;;5015877;28;20468;-62
2024/01/29 04:40:22;;;;;;;3.47;3.10;;;4.30;99.90;;;;;;5008704;28;20510;-62
2024/01/29 04:42:52;;;;;;;3.70;2.67;;;4.30;99.90;;;;;;5011016;28;20491;-62
2024/01/29 04:45:20;;;;;;;3.77;3.07;;;4.30;99.90;;;;;;5001402;28;20467;-62
2024/01/29 04:47:48;;;;;;;4.40;3.23;;;4.30;99.90;;;;;;5010069;28;20546;-62
2024/01/29 04:50:16;;;;;;;4.43;2.60;;;4.30;99.90;;;;;;5005001;28;21043;-62
2024/01/29 04:52:44;;;;;;;3.13;2.63;;;4.30;99.90;;;;;;5009720;28;20500;-62
2024/01/29 04:55:12;;;;;;;3.17;2.87;;;4.30;99.90;;;;;;5019826;28;20651;-62
2024/01/29 04:57:41;;;;;;;2.90;2.70;;;4.30;99.90;;;;;;5015604;28;20943;-62
2024/01/29 05:00:11;;;;;;;3.53;3.20;;;4.30;99.90;;;;;;5014169;28;20587;-62
2024/01/29 05:02:39;;;;;;;3.87;3.20;;;4.30;99.90;;;;;;5009539;28;20523;-62
2024/01/29 05:05:07;;;;;;;3.77;2.60;;;4.30;99.90;;;;;;5013231;28;20831;-62
2024/01/29 05:07:35;;;;;;;3.50;2.83;;;4.30;99.90;;;;;;5007095;28;20547;-62
2024/01/29 05:10:04;;;;;;;3.03;2.73;;;4.30;99.90;;;;;;5015086;28;20570;-62
2024/01/29 05:12:32;;;;;;;3.83;2.93;;;4.30;99.90;;;;;;5013229;28;20499;-62
2024/01/29 05:15:00;;;;;;;3.43;2.33;;;4.30;99.90;;;;;;5009722;28;20475;-62
2024/01/29 05:17:29;;;;;;;4.33;3.07;;;4.30;99.90;;;;;;5013617;28;20473;-62
2024/01/29 05:19:57;;;;;;;3.00;2.70;;;4.30;99.90;;;;;;5014874;28;20569;-61
2024/01/29 05:22:25;;;;;;;3.60;3.00;;;4.20;99.90;;;;;;5016727;28;20487;-63
2024/01/29 05:24:53;;;;;;;3.40;3.10;;;4.20;99.90;;;;;;5010797;28;20973;-62
2024/01/29 05:27:21;;;;;;;3.43;2.70;;;4.20;99.90;;;;;;5009698;28;21113;-62
2024/01/29 05:29:49;;;;;;;3.83;2.87;;;4.20;99.90;;;;;;5012080;28;20570;-62
2024/01/29 05:32:17;;;;;;;3.20;2.90;;;4.20;99.90;;;;;;4977829;28;20923;-63
2024/01/29 05:34:46;;;;;;;3.20;2.90;;;4.20;99.90;;;;;;4985505;28;20491;-62
2024/01/29 05:37:15;;;;;;;3.53;3.23;;;4.20;99.90;;;;;;4986276;28;20566;-62
2024/01/29 05:39:43;;;;;;;3.30;3.00;;;4.20;99.90;;;;;;4983716;28;20472;-62
2024/01/29 05:42:11;;;;;;;3.40;3.10;;;4.10;99.90;;;;;;4993536;28;20481;-62
2024/01/29 05:44:39;;;;;;;5.33;3.03;;;4.10;99.90;;;;;;4997523;28;20508;-62
2024/01/29 05:47:07;;;;;;;4.67;4.27;;;4.10;99.90;;;;;;4984486;28;20567;-62
2024/01/29 05:49:35;;;;;;;3.53;3.20;;;4.10;99.90;;;;;;4996133;28;20468;-62
2024/01/29 05:52:05;;;;;;;5.30;4.10;;;4.10;99.90;;;;;;5009055;28;20523;-62
2024/01/29 05:54:33;;;;;;;5.13;3.30;;;4.10;99.90;;;;;;5013577;28;20470;-62
2024/01/29 05:57:01;;;;;;;3.10;2.80;;;4.10;99.90;;;;;;4996168;28;21666;-62
2024/01/29 05:59:29;;;;;;;6.40;3.17;;;4.10;99.90;;;;;;5019089;28;20470;-63
2024/01/29 06:01:57;;;;;;;3.37;3.07;;;4.10;99.90;;;;;;4975938;28;20504;-62
2024/01/29 06:04:25;;;;;;;5.40;3.60;;;4.10;99.90;;;;;;4990220;28;20474;-62
2024/01/29 06:06:53;;;;;;;3.13;2.90;;;4.10;99.90;;;;;;4985489;28;22153;-62
2024/01/29 06:09:23;;;;;;;3.40;3.10;;;4.10;99.90;;;;;;4984873;28;20505;-62
2024/01/29 06:11:51;;;;;;;3.70;2.80;;;4.10;99.90;;;;;;5000636;28;20519;-62
2024/01/29 06:14:19;;;;;;;3.10;2.80;;;4.10;99.90;;;;;;5013294;28;21312;-62
2024/01/29 06:16:47;;;;;;;6.33;3.17;;;4.00;99.90;;;;;;5008745;28;20467;-62
2024/01/29 06:19:17;;;;;;;3.57;3.00;;;4.00;99.90;;;;;;5020631;28;20501;-62
2024/01/29 06:21:46;;;;;;;4.07;2.93;;;4.00;99.90;;;;;;5002988;28;20476;-62
2024/01/29 06:24:14;;;;;;;3.43;3.13;;;4.00;99.90;;;;;;4988079;28;20504;-62
2024/01/29 06:26:43;;;;;;;3.40;3.10;;;4.00;99.90;;;;;;4985717;28;20469;-62
2024/01/29 06:29:14;;;;;;;3.60;3.00;;;4.00;99.90;;;;;;4977323;28;20464;-62
2024/01/29 06:31:42;;;;;;;5.27;3.10;;;3.90;99.90;;;;;;4991482;28;20574;-62
2024/01/29 06:34:10;;;;;;;5.30;3.67;;;3.90;99.90;;;;;;5002744;28;21045;-62
2024/01/29 06:36:38;;;;;;;4.00;3.07;;;3.90;99.90;;;;;;5003361;28;20473;-62
2024/01/29 06:39:08;;;;;;;3.83;3.27;;;3.90;99.90;;;;;;4998208;28;20594;-61
2024/01/29 06:41:36;;;;;;;5.73;3.20;;;3.90;99.90;;;;;;5003866;28;20498;-62
2024/01/29 06:44:05;;;;;;;3.97;3.00;;;3.90;99.90;;;;;;4998919;28;20467;-62
2024/01/29 06:46:33;;;;;;;4.10;3.40;;;3.90;99.90;;;;;;5003101;28;20494;-62
2024/01/29 06:49:01;;;;;;;2.93;2.70;;;3.90;99.90;;;;;;5003186;28;20472;-62
2024/01/29 06:51:29;;;;;;;4.47;3.50;;;3.90;99.90;;;;;;4999652;28;20487;-62
2024/01/29 06:54:00;;;;;;;6.30;3.20;;;3.90;99.90;;;;;;4993628;28;21030;-62
2024/01/29 06:56:28;;;;;;;3.53;3.20;;;3.90;99.90;;;;;;4991720;28;20475;-62
2024/01/29 06:58:56;;;;;;;3.70;3.20;;;3.90;99.90;;;;;;5007976;28;20468;-62
2024/01/29 07:01:26;;;;;;;5.10;3.40;;;3.90;99.90;;;;;;5009517;28;20514;-62
2024/01/29 07:03:54;;;;;;;3.57;3.27;;;3.90;99.90;;;;;;5008643;28;20517;-62
2024/01/29 07:06:22;;;;;;;4.20;2.77;;;3.90;99.90;;;;;;5002315;28;20529;-62
2024/01/29 07:08:51;;;;;;;4.60;3.40;;;3.90;99.90;;;;;;5005589;28;20479;-62
2024/01/29 07:11:19;;;;;;;3.53;3.23;;;3.90;99.90;;;;;;5008413;28;20573;-62
2024/01/29 07:13:47;;;;;;;3.53;3.23;;;3.90;99.90;;;;;;5019211;28;20502;-62
2024/01/29 07:16:15;;;;;;;3.47;3.07;;;3.90;99.90;;;;;;5024580;28;20467;-62
2024/01/29 07:18:45;;;;;;;4.20;3.27;;;3.90;99.90;;;;;;5020606;28;20475;-62
2024/01/29 07:21:13;;;;;;;6.00;3.40;;;3.90;99.90;;;;;;4994718;28;20485;-62
2024/01/29 07:23:41;;;;;;;6.30;3.60;;;3.90;99.90;;;;;;4994166;28;20535;-62
2024/01/29 07:26:09;;;;;;;5.30;3.23;;;3.90;99.90;;;;;;5001347;28;20468;-62
2024/01/29 07:28:37;;;;;;;4.07;3.13;;;3.90;99.90;;;;;;5001558;28;20551;-62
2024/01/29 07:31:05;;;;;;;3.83;3.30;;;3.90;99.90;;;;;;4997359;28;20485;-61
2024/01/29 07:33:33;;;;;;;5.50;3.27;;;3.90;99.90;;;;;;4988602;28;20551;-61
2024/01/29 07:36:03;;;;;;;4.53;3.40;;;3.90;99.90;;;;;;4996291;28;20476;-61
2024/01/29 07:38:31;;;;;;;4.10;3.23;;;3.90;99.90;;;;;;4990756;28;20471;-62
2024/01/29 07:40:59;;;;;;;5.33;3.47;;;3.90;99.90;;;;;;4991163;28;20503;-62
2024/01/29 07:43:27;;;;;;;5.20;3.40;;;3.90;99.90;;;;;;4995687;28;20480;-63
2024/01/29 07:45:55;;;;;;;3.17;2.80;;;3.90;99.90;;;;;;4997021;28;20476;-62
2024/01/29 07:48:23;;;;;;;5.27;3.80;;;4.00;99.90;;;;;;4985914;28;20485;-62
2024/01/29 07:50:51;;;;;;;5.20;3.03;;;4.00;99.90;;;;;;4984543;28;21623;-62
2024/01/29 07:53:20;;;;;;;6.40;3.63;;;4.00;99.90;;;;;;4987899;28;20503;-62
2024/01/29 07:55:48;;;;;;;8.43;3.30;;;4.00;99.90;;;;;;4992580;28;20498;-63
2024/01/29 07:58:16;;;;;;;4.73;3.07;;;4.10;99.90;;;;;;4994345;28;20614;-61
2024/01/29 08:00:47;;;;;;;4.63;3.50;;;4.10;99.90;;;;;;4986986;28;20888;-62
2024/01/29 08:03:16;;;;;;;4.47;3.30;;;4.10;99.90;;;;;;4988333;28;20484;-62
2024/01/29 08:05:44;;;;;;;4.77;3.97;;;4.10;99.90;;;;;;4987853;28;20500;-61
2024/01/29 08:08:12;;;;;;;4.60;3.20;;;4.10;99.90;;;;;;4988286;28;20912;-62
2024/01/29 08:10:41;;;;;;;4.33;3.17;;;4.20;99.90;;;;;;4999938;28;21034;-62
2024/01/29 08:13:09;;;;;;;3.90;3.10;;;4.20;99.90;;;;;;5014979;28;20530;-62
2024/01/29 08:15:37;;;;;;;4.03;3.07;;;4.30;99.90;;;;;;5009225;28;21261;-62
2024/01/29 08:18:05;;;;;;;3.23;3.00;;;4.30;99.90;;;;;;5018090;28;20475;-63
2024/01/29 08:20:34;;;;;;;4.33;3.03;;;4.30;99.90;;;;;;5014060;28;20499;-62
2024/01/29 08:23:02;;;;;;;3.30;2.87;;;4.40;99.90;;;;;;5018206;28;20491;-62
2024/01/29 08:25:30;;;;;;;4.33;3.07;;;4.40;99.90;;;;;;5016238;28;20665;-62
2024/01/29 08:27:59;;;;;;;4.27;3.27;;;4.40;99.90;;;;;;5018218;28;20513;-62
2024/01/29 08:30:27;;;;;;;5.90;2.80;;;4.50;99.90;;;;;;5018607;28;20597;-62
2024/01/29 08:32:55;;;;;;;3.13;2.83;;;4.50;99.90;;;;;;5014633;28;20474;-62
2024/01/29 08:35:24;;;;;;;4.03;3.20;;;4.50;99.90;;;;;;5010128;28;20471;-62
2024/01/29 08:37:52;;;;;;;2.90;2.70;;;4.60;99.90;;;;;;5003570;28;21109;-62
2024/01/29 08:40:20;;;;;;;3.33;2.60;;;4.60;99.90;;;;;;5017838;28;20995;-62
2024/01/29 08:42:49;;;;;;;2.90;2.70;;;4.60;99.90;;;;;;5010927;28;20953;-62
2024/01/29 08:45:19;;;;;;;3.17;2.70;;;4.60;99.90;;;;;;5006519;28;20979;-62
2024/01/29 08:47:47;;;;;;;3.17;2.87;;;4.60;99.90;;;;;;5008342;28;20463;-62
2024/01/29 08:50:15;;;;;;;7.23;3.27;;;4.70;99.90;;;;;;5012167;28;20479;-61
2024/01/29 08:52:43;;;;;;;4.43;2.80;;;4.80;99.90;;;;;;5006677;28;20578;-62
2024/01/29 08:55:12;;;;;;;3.40;2.80;;;4.80;99.90;;;;;;4993199;28;20620;-62
2024/01/29 08:57:40;;;;;;;3.57;2.73;;;4.80;99.90;;;;;;4999868;28;20486;-62
2024/01/29 09:00:09;;;;;;;4.80;3.93;;;4.90;99.90;;;;;;4998793;28;20496;-62
2024/01/29 09:02:38;;;;;;;4.60;3.03;;;4.90;99.90;;;;;;5004862;28;20653;-62
2024/01/29 09:05:06;;;;;;;3.53;2.90;;;5.00;99.90;;;;;;5008130;28;20467;-62
2024/01/29 09:07:35;;;;;;;3.00;2.50;;;5.00;99.90;;;;;;5001182;28;20467;-62
2024/01/29 09:10:03;;;;;;;3.30;2.40;;;5.10;99.90;;;;;;5001163;28;21211;-62
2024/01/29 09:12:31;;;;;;;3.13;2.60;;;5.20;99.90;;;;;;5004545;28;20495;-62
2024/01/29 09:15:02;;;;;;;3.03;2.63;;;5.30;99.90;;;;;;5008745;28;20467;-62
2024/01/29 09:17:30;;;;;;;4.57;3.00;;;5.30;99.90;;;;;;5004048;28;20589;-62
2024/01/29 09:20:00;;;;;;;3.17;2.87;;;5.40;99.90;;;;;;5004937;28;20506;-62
2024/01/29 09:22:28;;;;;;;4.27;2.70;;;5.50;99.90;;;;;;5010947;28;20499;-62
2024/01/29 09:24:56;;;;;;;4.73;3.03;;;5.50;99.90;;;;;;5006024;28;20555;-62
2024/01/29 09:27:25;;;;;;;3.20;2.87;;;5.60;99.90;;;;;;5014015;28;20482;-62
2024/01/29 09:29:53;;;;;;;4.20;3.07;;;5.60;99.90;;;;;;5014217;28;20475;-62
2024/01/29 09:32:21;;;;;;;5.33;2.77;;;5.60;99.90;;;;;;5010666;28;20586;-62
2024/01/29 09:34:49;;;;;;;5.00;2.90;;;5.70;99.90;;;;;;5018615;28;20546;-62
2024/01/29 09:37:19;;;;;;;2.90;2.70;;;5.70;99.90;;;;;;5009577;28;20508;-62
2024/01/29 09:39:47;;;;;;;3.13;2.63;;;5.80;99.90;;;;;;5003526;28;20474;-61
2024/01/29 09:42:18;;;;;;;4.40;2.90;;;5.90;99.90;;;;;;5011351;28;20534;-62
2024/01/29 09:44:48;;;;;;;3.87;3.30;;;5.90;99.90;;;;;;5011382;28;20467;-62
2024/01/29 09:47:16;;;;;;;3.57;3.07;;;5.90;99.90;;;;;;5010640;28;20485;-62
2024/01/29 09:49:44;;;;;;;4.53;3.07;;;6.00;99.90;;;;;;5010472;28;20980;-62
2024/01/29 09:52:13;;;;;;;3.80;3.00;;;6.00;99.90;;;;;;5008791;28;20570;-62
2024/01/29 09:54:45;;;;;;;3.00;2.70;;;6.10;99.90;;;;;;5012803;28;20479;-64
2024/01/29 09:57:15;;;;;;;4.43;2.67;;;6.20;99.90;;;;;;5019414;28;20463;-62
2024/01/29 09:59:43;;;;;;;3.30;3.00;;;6.20;99.90;;;;;;5014600;28;20475;-62
2024/01/29 10:02:13;;;;;;;3.80;3.27;;;6.20;99.90;;;;;;5012846;28;20493;-62
2024/01/29 10:04:41;;;;;;;3.43;3.13;;;6.20;99.90;;;;;;5009073;28;20479;-62
2024/01/29 10:07:11;;;;;;;5.60;3.47;;;6.30;99.90;;;;;;5007725;28;20475;-62
2024/01/29 10:09:39;;;;;;;4.50;3.50;;;6.30;99.90;;;;;;5005215;28;20471;-62
2024/01/29 10:12:09;;;;;;;4.60;3.23;;;6.40;99.90;;;;;;5008084;28;20622;-62
2024/01/29 10:14:37;;;;;;;3.70;3.40;;;6.50;99.90;;;;;;5008890;28;20939;-62
2024/01/29 10:17:05;;;;;;;3.60;3.30;;;6.50;99.90;;;;;;5016898;28;20491;-62
2024/01/29 10:19:37;;;;;;;5.50;3.60;;;6.60;99.90;;;;;;5024852;28;21049;-62
2024/01/29 10:22:12;;;;;;;3.53;3.23;;;6.70;99.90;;;;;;5021617;28;20506;-62
2024/01/29 10:24:40;;;;;;;5.50;3.80;;;6.80;99.90;;;;;;5022373;28;20557;-62
2024/01/29 10:27:11;;;;;;;4.13;3.50;;;6.90;99.90;;;;;;5017033;28;20490;-62
2024/01/29 10:29:49;;;;;;;4.33;3.60;;;7.00;99.90;;;;;;5017923;28;20504;-62
2024/01/29 10:32:17;;;;;;;3.87;3.50;;;7.10;99.90;;;;;;4998691;28;20515;-62
2024/01/29 10:34:45;;;;;;;5.50;3.70;;;7.20;99.90;;;;;;4989267;28;20477;-62
2024/01/29 10:37:17;;;;;;;7.53;3.50;;;7.40;99.90;;;;;;4992882;28;21526;-62
2024/01/29 10:39:45;;;;;;;5.97;3.90;;;7.50;99.90;;;;;;4985431;28;20953;-60
2024/01/29 10:42:29;;;;;;;6.27;3.93;;;7.60;99.90;;;;;;4990781;28;20646;-62
2024/01/29 10:45:02;;;;;;;5.53;3.90;;;7.60;99.90;;;;;;4984754;28;20457;-62
2024/01/29 10:47:34;;;;;;;6.40;3.83;;;7.70;99.90;;;;;;4985620;28;21501;-63
2024/01/29 10:50:03;;;;;;;4.60;3.70;;;7.80;99.90;;;;;;4979608;28;20475;-62
2024/01/29 10:52:31;;;;;;;4.20;3.70;;;7.90;99.90;;;;;;4988391;28;20579;-62
2024/01/29 10:55:00;;;;;;;4.47;3.87;;;8.10;99.90;;;;;;4987592;28;20565;-62
2024/01/29 10:57:32;;;;;;;4.80;3.57;;;8.20;99.90;;;;;;4986375;28;20472;-62
2024/01/29 11:00:01;;;;;;;4.10;3.70;;;8.20;99.90;;;;;;4986707;28;20472;-62
2024/01/29 11:02:29;;;;;;;4.30;3.90;;;8.30;99.90;;;;;;4983573;28;20522;-62
2024/01/29 11:04:58;;;;;;;4.13;3.73;;;8.30;99.90;;;;;;4982640;28;20566;-62
2024/01/29 11:07:28;;;;;;;3.50;3.20;;;8.40;99.90;;;;;;4987420;28;20477;-62
2024/01/29 11:10:03;;;;;;;5.63;3.63;;;8.60;99.90;;;;;;4981295;28;21020;-62
2024/01/29 11:12:34;;;;;;;4.60;3.53;;;8.70;99.90;;;;;;4981453;28;20577;-62
2024/01/29 11:15:05;;;;;;;4.07;3.40;;;8.80;99.90;;;;;;4984931;28;20475;-62
2024/01/29 11:17:33;;;;;;;3.60;3.30;;;8.80;99.90;;;;;;4983753;28;20558;-62
2024/01/29 11:20:02;;;;;;;3.70;3.40;;;9.00;99.90;;;;;;4986848;28;20483;-62
2024/01/29 11:22:37;;;;;;;5.63;4.50;;;9.00;99.90;;;;;;4990321;28;20934;-62
2024/01/29 11:25:08;;;;;;;4.43;3.30;;;9.10;99.90;;;;;;4986853;28;21112;-62
2024/01/29 11:27:39;;;;;;;3.70;3.40;;;9.20;99.90;;;;;;4979998;28;21059;-62
2024/01/29 11:30:13;;;;;;;3.57;3.27;;;9.20;99.90;;;;;;4979633;28;20485;-62
2024/01/29 11:32:41;;;;;;;4.77;3.80;;;9.30;99.90;;;;;;4982821;28;20503;-62
2024/01/29 11:35:12;;;;;;;3.77;3.40;;;9.30;99.90;;;;;;4983106;28;20820;-64
2024/01/29 11:37:41;;;;;;;5.10;3.27;;;9.40;99.90;;;;;;4980424;28;20661;-62
2024/01/29 11:40:31;;;;;;;4.23;3.33;;;9.50;99.90;;;;;;4987963;28;20488;-63
2024/01/29 11:43:00;;;;;;;3.80;3.50;;;9.60;99.90;;;;;;4987324;28;20577;-62
2024/01/29 11:45:30;;;;;;;3.83;3.53;;;9.80;99.90;;;;;;4983764;28;20469;-62
2024/01/29 11:47:59;;;;;;;4.00;3.70;;;9.90;99.90;;;;;;4981543;28;20479;-62
2024/01/29 11:50:28;;;;;;;3.50;3.17;;;10.00;99.90;;;;;;4987094;28;21020;-62
2024/01/29 11:52:56;;;;;;;4.07;3.23;;;10.10;99.90;;;;;;4997269;28;21029;-62
2024/01/29 11:55:33;;;;;;;3.80;3.50;;;10.40;99.90;;;;;;4991289;28;20484;-62
2024/01/29 11:58:02;;;;;;;3.63;3.30;;;10.70;99.90;;;;;;4981901;28;20477;-62
2024/01/29 12:00:30;;;;;;;5.70;3.70;;;10.80;99.90;;;;;;4995614;28;20468;-63
2024/01/29 12:02:58;;;;;;;6.90;3.87;;;11.00;98.90;;;;;;4998873;28;20468;-63
2024/01/29 12:05:26;;;;;;;3.63;3.33;;;11.30;98.10;;;;;;4985239;28;20476;-62
2024/01/29 12:07:54;;;;;;;3.80;3.50;;;11.60;96.70;;;;;;4988609;28;21185;-63
2024/01/29 12:10:23;;;;;;;4.50;4.10;;;11.80;93.70;;;;;;4992141;28;20558;-63
2024/01/29 12:12:51;;;;;;;4.00;3.70;;;11.80;94.20;;;;;;4984418;28;20586;-62
2024/01/29 12:15:21;;;;;;;4.20;3.80;;;11.80;94.10;;;;;;4984142;28;20477;-63
2024/01/29 12:17:51;;;;;;;4.33;3.97;;;11.70;93.80;;;;;;5001809;28;20468;-63
2024/01/29 12:20:22;;;;;;;4.87;3.90;;;11.70;93.60;;;;;;4998895;28;20473;-62
2024/01/29 12:22:50;;;;;;;4.07;3.67;;;11.70;92.60;;;;;;4991251;28;20495;-63
2024/01/29 12:25:18;;;;;;;6.40;4.20;;;11.70;94.70;;;;;;4997121;28;21023;-63
2024/01/29 12:27:47;;;;;;;3.80;3.50;;;11.90;94.10;;;;;;4997898;28;20472;-62
2024/01/29 12:30:16;;;;;;;4.90;3.60;;;12.00;94.50;;;;;;4997281;28;20590;-62
2024/01/29 12:32:45;;;;;;;4.10;3.70;;;12.00;95.10;;;;;;4980269;28;20595;-62
2024/01/29 12:35:28;;;;;;;4.23;3.83;;;12.00;93.60;;;;;;4990215;28;21016;-62
2024/01/29 12:38:05;;;;;;;4.30;3.90;;;12.00;94.90;;;;;;4982151;28;21112;-62
2024/01/29 12:40:33;;;;;;;4.03;3.73;;;12.20;94.40;;;;;;4983540;28;20514;-63
2024/01/29 12:43:02;;;;;;;4.90;4.50;;;13.30;92.20;;;;;;4982999;28;20477;-62
2024/01/29 12:45:30;;;;;;;4.93;3.97;;;15.00;81.80;;;;;;4986479;28;20550;-63
2024/01/29 12:48:15;;;;;;;4.53;4.13;;;16.60;67.60;;;;;;4988321;28;20548;-62
2024/01/29 12:50:43;;;;;;;4.67;3.97;;;18.20;57.20;;;;;;4986406;28;20495;-63
2024/01/29 12:53:12;;;;;;;4.90;4.50;;;19.60;50.50;;;;;;4988692;28;20481;-62
2024/01/29 12:55:42;;;;;;;4.53;4.13;;;20.60;44.60;;;;;;4984759;28;21289;-63
2024/01/29 12:58:10;;;;;;;4.27;3.87;;;21.50;41.50;;;;;;4989568;28;21734;-62
2024/01/29 13:00:40;;;;;;;4.90;4.50;;;22.40;38.50;;;;;;4990971;28;20492;-61
2024/01/29 13:03:09;;;;;;;4.20;3.90;;;22.90;36.20;;;;;;4988819;28;21443;-61